Time;durP1;ratioP1;P1;durP2;ratioP2;P2;SDS_P1;SDS_P2;PMS_P1;PMS_P2;Temp;Humidity;BMP_temperature;BMP_pressure;BME280_temperature;BME280_humidity;BME280_pressure;Samples;Min_cycle;Max_cycle;Signal;HPM_P1;HPM_P2
2022/01/05 00:01:17;;;;;;;2.35;1.42;;;;;;;6.16;85.28;98338.72;4848023;29;20066;-75
2022/01/05 00:03:43;;;;;;;1.08;0.95;;;;;;;6.12;84.92;98347.91;4848438;29;20188;-78
2022/01/05 00:06:08;;;;;;;1.10;0.80;;;;;;;6.13;84.82;98352.25;4862796;29;20037;-78
2022/01/05 00:08:33;;;;;;;1.38;0.90;;;;;;;6.13;85.03;98354.06;4847575;29;20237;-76
2022/01/05 00:10:59;;;;;;;0.80;0.80;;;;;;;6.08;84.14;98354.50;4847358;29;20093;-76
2022/01/05 00:13:24;;;;;;;2.15;0.93;;;;;;;6.17;84.63;98355.47;4834836;29;20038;-77
2022/01/05 00:15:49;;;;;;;1.27;0.90;;;;;;;6.15;84.53;98360.91;4848511;29;20034;-76
2022/01/05 00:18:15;;;;;;;1.52;1.08;;;;;;;6.30;84.58;98363.88;4848226;29;20042;-77
2022/01/05 00:20:41;;;;;;;0.90;0.90;;;;;;;6.19;84.38;98367.59;4847069;29;20097;-78
2022/01/05 00:23:06;;;;;;;1.10;1.00;;;;;;;6.24;83.56;98367.16;4861996;29;20046;-78
2022/01/05 00:25:31;;;;;;;1.08;0.98;;;;;;;6.23;83.73;98371.63;4861141;29;20161;-77
2022/01/05 00:27:57;;;;;;;1.92;1.10;;;;;;;6.22;83.95;98377.91;4848126;29;20053;-78
2022/01/05 00:30:22;;;;;;;1.60;1.10;;;;;;;6.23;84.12;98381.41;4848827;29;20041;-78
2022/01/05 00:32:47;;;;;;;1.10;1.05;;;;;;;6.20;83.99;98376.41;4848091;29;20045;-79
2022/01/05 00:35:13;;;;;;;1.30;1.10;;;;;;;6.18;83.87;98376.53;4857589;29;20041;-76
2022/01/05 00:37:38;;;;;;;1.67;1.15;;;;;;;6.21;83.82;98381.56;4847763;29;20054;-77
2022/01/05 00:40:04;;;;;;;2.17;1.20;;;;;;;6.25;83.66;98368.81;4853864;29;20032;-77
2022/01/05 00:42:30;;;;;;;2.22;1.40;;;;;;;6.19;83.66;98366.75;4847407;29;20076;-76
2022/01/05 00:44:55;;;;;;;2.20;1.15;;;;;;;6.14;83.76;98371.66;4861533;29;20042;-78
2022/01/05 00:47:21;;;;;;;2.38;1.40;;;;;;;6.05;83.24;98362.78;4847800;29;20295;-78
2022/01/05 00:49:46;;;;;;;2.60;1.40;;;;;;;6.14;84.03;98367.19;4848647;29;20048;-77
2022/01/05 00:52:12;;;;;;;1.88;1.42;;;;;;;6.11;84.07;98371.97;4860111;29;20044;-77
2022/01/05 00:54:37;;;;;;;1.70;1.52;;;;;;;6.12;84.20;98377.13;4848319;29;20033;-77
2022/01/05 00:57:03;;;;;;;2.95;1.38;;;;;;;6.22;84.33;98364.63;4833593;29;20080;-77
2022/01/05 00:59:32;;;;;;;2.17;1.40;;;;;;;6.18;84.13;98376.53;4862695;29;20441;-78
2022/01/05 01:01:57;;;;;;;1.77;1.58;;;;;;;6.13;84.31;98362.03;4833444;29;20050;-76
2022/01/05 01:04:22;;;;;;;1.95;1.50;;;;;;;6.23;84.14;98362.81;4848139;29;20106;-77
2022/01/05 01:06:48;;;;;;;3.42;1.90;;;;;;;6.16;84.32;98359.94;4848574;29;20034;-76
2022/01/05 01:09:13;;;;;;;6.68;2.15;;;;;;;6.09;84.34;98363.31;4847032;29;20073;-77
2022/01/05 01:11:38;;;;;;;2.33;1.98;;;;;;;6.05;84.30;98372.56;4846343;29;20037;-77
2022/01/05 01:14:04;;;;;;;4.95;2.20;;;;;;;6.08;84.31;98381.03;4847868;29;20042;-77
2022/01/05 01:16:30;;;;;;;3.00;1.90;;;;;;;6.11;85.10;98375.44;4843368;29;20042;-77
2022/01/05 01:18:55;;;;;;;4.63;1.90;;;;;;;6.07;84.30;98390.00;4849095;29;20074;-78
2022/01/05 01:21:20;;;;;;;5.47;2.05;;;;;;;6.05;84.52;98381.34;4849080;29;20113;-78
2022/01/05 01:23:55;;;;;;;3.10;1.80;;;;;;;6.10;84.77;98388.84;4847665;29;20033;-77
2022/01/05 01:26:21;;;;;;;4.97;1.88;;;;;;;6.05;84.58;98378.69;4847178;29;20752;-76
2022/01/05 01:28:46;;;;;;;3.78;1.90;;;;;;;6.06;84.90;98390.97;4861351;29;20065;-78
2022/01/05 01:31:11;;;;;;;4.07;1.90;;;;;;;6.01;84.47;98393.25;4833393;29;20038;-77
2022/01/05 01:33:36;;;;;;;4.03;1.88;;;;;;;6.05;84.28;98394.63;4848523;29;20046;-78
2022/01/05 01:36:02;;;;;;;4.35;2.10;;;;;;;6.02;84.82;98384.28;4847934;29;20033;-75
2022/01/05 01:38:27;;;;;;;5.65;2.30;;;;;;;6.07;84.89;98383.84;4849417;29;20117;-77
2022/01/05 01:40:53;;;;;;;4.35;2.45;;;;;;;6.04;84.60;98384.16;4848314;29;20034;-77
2022/01/05 01:43:18;;;;;;;5.43;2.60;;;;;;;5.95;84.47;98386.72;4860480;29;20048;-78
2022/01/05 01:45:43;;;;;;;6.18;2.67;;;;;;;5.94;84.63;98385.03;4848904;29;20120;-77
2022/01/05 01:48:09;;;;;;;5.90;2.75;;;;;;;5.93;84.60;98387.84;4849368;29;20065;-78
2022/01/05 01:50:34;;;;;;;6.80;2.75;;;;;;;5.99;84.54;98395.22;4850748;29;20045;-76
2022/01/05 01:53:00;;;;;;;5.10;2.78;;;;;;;5.95;84.79;98399.13;4835809;29;20030;-77
2022/01/05 01:55:25;;;;;;;4.50;2.80;;;;;;;5.98;84.56;98393.53;4851812;29;20053;-76
2022/01/05 01:57:51;;;;;;;5.25;3.30;;;;;;;6.06;84.67;98403.41;4836000;29;20107;-78
2022/01/05 02:00:17;;;;;;;7.32;3.50;;;;;;;6.04;85.15;98408.88;4834412;29;20483;-77
2022/01/05 02:02:44;;;;;;;5.60;3.10;;;;;;;5.98;84.37;98404.97;4850069;29;20085;-76
2022/01/05 02:05:10;;;;;;;6.28;3.10;;;;;;;5.90;84.51;98419.97;4851072;29;20045;-77
2022/01/05 02:07:35;;;;;;;6.80;3.22;;;;;;;5.77;83.91;98411.47;4866379;29;20049;-78
2022/01/05 02:10:05;;;;;;;4.78;2.97;;;;;;;5.94;85.00;98416.88;4851354;29;20036;-75
2022/01/05 02:12:30;;;;;;;7.55;3.78;;;;;;;5.88;84.51;98417.44;4852106;29;20056;-78
2022/01/05 02:14:56;;;;;;;5.88;2.85;;;;;;;5.86;84.61;98427.34;4853043;29;20050;-77
2022/01/05 02:17:29;;;;;;;4.32;2.70;;;;;;;5.95;84.76;98425.66;4851102;29;20073;-77
2022/01/05 02:19:59;;;;;;;6.00;2.80;;;;;;;5.88;84.10;98429.84;4865338;29;20057;-77
2022/01/05 02:22:24;;;;;;;5.55;2.70;;;;;;;5.86;84.44;98430.00;4835974;29;20038;-76
2022/01/05 02:24:49;;;;;;;7.38;2.75;;;;;;;5.82;84.20;98431.28;4851009;29;20033;-78
2022/01/05 02:27:15;;;;;;;7.38;2.90;;;;;;;5.82;84.00;98433.94;4851620;29;20049;-77
2022/01/05 02:29:40;;;;;;;4.15;2.38;;;;;;;5.86;84.08;98427.34;4849978;29;20041;-78
2022/01/05 02:32:06;;;;;;;5.78;2.45;;;;;;;5.86;83.88;98424.69;4850355;29;20494;-78
2022/01/05 02:34:32;;;;;;;6.53;2.42;;;;;;;5.86;83.95;98429.16;4835068;29;20045;-76
2022/01/05 02:36:57;;;;;;;6.15;2.50;;;;;;;5.69;83.74;98439.56;4849945;29;20045;-75
2022/01/05 02:39:22;;;;;;;5.10;2.17;;;;;;;5.70;83.97;98453.66;4834508;29;20072;-76
2022/01/05 02:41:49;;;;;;;5.57;2.35;;;;;;;5.79;84.08;98459.91;4849667;29;20057;-76
2022/01/05 02:44:14;;;;;;;6.05;2.33;;;;;;;5.76;83.71;98466.34;4850053;29;20042;-76
2022/01/05 02:46:39;;;;;;;7.53;2.45;;;;;;;5.72;83.77;98466.78;4850307;29;20049;-77
2022/01/05 02:49:05;;;;;;;5.10;2.30;;;;;;;5.60;83.36;98464.28;4851341;29;20549;-76
2022/01/05 02:51:30;;;;;;;7.18;2.45;;;;;;;5.69;84.05;98467.91;4849458;29;20129;-79
2022/01/05 02:53:56;;;;;;;6.63;2.40;;;;;;;5.72;83.59;98478.22;4849389;29;20110;-77
2022/01/05 02:56:22;;;;;;;4.60;1.95;;;;;;;5.67;83.62;98468.00;4834233;29;20139;-77
2022/01/05 02:58:49;;;;;;;6.18;2.10;;;;;;;5.68;83.14;98474.19;4865710;29;20041;-76
2022/01/05 03:01:15;;;;;;;8.57;2.28;;;;;;;5.75;83.87;98477.09;4851453;29;20041;-77
2022/01/05 03:03:40;;;;;;;4.75;1.73;;;;;;;5.66;82.53;98492.84;4834505;29;20058;-76
2022/01/05 03:06:05;;;;;;;6.85;2.20;;;;;;;5.64;82.90;98489.50;4849932;29;20058;-77
2022/01/05 03:08:31;;;;;;;6.95;1.98;;;;;;;5.63;83.04;98477.25;4849500;29;20052;-78
2022/01/05 03:10:56;;;;;;;3.58;1.67;;;;;;;5.56;82.25;98492.03;4848038;29;20045;-76
2022/01/05 03:13:23;;;;;;;5.28;1.90;;;;;;;5.53;82.65;98494.16;4850254;29;20042;-77
2022/01/05 03:15:52;;;;;;;6.60;1.70;;;;;;;5.49;82.73;98495.41;4848342;29;20046;-77
2022/01/05 03:18:18;;;;;;;7.70;2.00;;;;;;;5.43;82.89;98495.97;4849313;29;20045;-77
2022/01/05 03:20:46;;;;;;;4.88;1.83;;;;;;;5.44;82.66;98497.66;4833782;29;20038;-76
2022/01/05 03:23:12;;;;;;;3.15;1.52;;;;;;;5.47;82.50;98498.22;4850356;29;20502;-76
2022/01/05 03:25:37;;;;;;;4.07;1.98;;;;;;;5.69;83.09;98502.38;4863475;29;20038;-78
2022/01/05 03:28:03;;;;;;;5.35;1.83;;;;;;;5.57;82.32;98504.31;4833073;29;20512;-77
2022/01/05 03:30:29;;;;;;;4.28;1.90;;;;;;;5.53;82.22;98504.75;4847749;29;20064;-76
2022/01/05 03:35:24;;;;;;;7.28;2.20;;;;;;;5.46;82.18;98516.91;4849682;29;20048;-78
2022/01/05 03:37:50;;;;;;;5.97;1.83;;;;;;;5.47;82.49;98518.59;4848086;29;20497;-77
2022/01/05 03:40:15;;;;;;;6.47;2.10;;;;;;;5.44;82.52;98529.47;4862773;29;20045;-76
2022/01/05 03:42:40;;;;;;;7.30;2.03;;;;;;;5.48;82.28;98522.91;4833767;29;20046;-77
2022/01/05 03:45:06;;;;;;;4.07;1.88;;;;;;;5.47;82.37;98529.19;4863114;29;20038;-79
2022/01/05 03:47:32;;;;;;;7.50;1.90;;;;;;;5.38;81.73;98529.06;4849078;29;20125;-78
2022/01/05 03:49:57;;;;;;;7.35;2.30;;;;;;;5.25;81.57;98533.81;4862844;29;20030;-77
2022/01/05 03:52:22;;;;;;;6.25;2.25;;;;;;;5.29;82.22;98543.16;4833648;29;20034;-76
2022/01/05 03:54:48;;;;;;;4.88;1.70;;;;;;;5.32;82.01;98548.16;4860454;29;20029;-76
2022/01/05 03:57:13;;;;;;;6.10;1.88;;;;;;;5.24;81.75;98545.38;4848179;29;20110;-77
2022/01/05 03:59:38;;;;;;;6.20;2.05;;;;;;;5.23;81.55;98548.16;4849178;29;20049;-77
2022/01/05 04:02:04;;;;;;;5.70;1.67;;;;;;;5.38;82.13;98544.97;4861658;29;20227;-78
2022/01/05 04:04:29;;;;;;;5.85;1.70;;;;;;;5.43;82.39;98556.94;4833985;29;20049;-77
2022/01/05 04:06:54;;;;;;;4.70;1.50;;;;;;;5.25;81.65;98564.78;4848194;29;20042;-77
2022/01/05 04:09:20;;;;;;;7.57;1.90;;;;;;;5.18;81.38;98561.81;4849072;29;20048;-78
2022/01/05 04:11:45;;;;;;;8.25;1.73;;;;;;;5.23;81.91;98570.22;4846463;29;20048;-76
2022/01/05 04:14:12;;;;;;;6.38;1.80;;;;;;;5.24;81.96;98573.69;4848164;29;20057;-77
2022/01/05 04:16:37;;;;;;;6.70;1.77;;;;;;;5.19;81.74;98573.25;4848364;29;20436;-76
2022/01/05 04:19:03;;;;;;;6.18;1.90;;;;;;;5.12;81.21;98574.78;4833286;29;20057;-76
2022/01/05 04:21:28;;;;;;;8.00;1.88;;;;;;;5.18;81.85;98577.72;4848978;29;20042;-77
2022/01/05 04:23:53;;;;;;;8.13;1.92;;;;;;;5.17;81.61;98583.16;4848665;29;20045;-77
2022/01/05 04:26:19;;;;;;;6.97;1.67;;;;;;;5.20;81.74;98582.88;4848237;29;20042;-77
2022/01/05 04:28:44;;;;;;;4.93;1.52;;;;;;;5.16;81.31;98584.97;4849076;29;20030;-77
2022/01/05 04:31:09;;;;;;;8.52;1.85;;;;;;;5.19;81.35;98586.50;4833477;29;20069;-77
2022/01/05 04:33:35;;;;;;;5.10;2.10;;;;;;;5.15;81.27;98593.03;4848819;29;20038;-77
2022/01/05 04:36:00;;;;;;;5.82;1.85;;;;;;;5.16;81.29;98592.06;4833132;29;20449;-75
2022/01/05 04:38:25;;;;;;;7.88;1.95;;;;;;;5.14;80.66;98604.63;4831936;29;20050;-76
2022/01/05 04:40:50;;;;;;;6.40;1.80;;;;;;;5.10;80.93;98600.56;4847540;29;20043;-78
2022/01/05 04:43:16;;;;;;;8.18;1.80;;;;;;;5.11;80.61;98603.06;4848562;29;20153;-77
2022/01/05 04:45:41;;;;;;;7.05;1.90;;;;;;;5.18;81.03;98596.25;4848574;29;20070;-78
2022/01/05 04:48:07;;;;;;;6.35;1.70;;;;;;;5.09;80.91;98597.09;4849273;29;20042;-76
2022/01/05 04:50:32;;;;;;;7.70;1.80;;;;;;;5.04;80.63;98599.31;4832888;29;20448;-77
2022/01/05 04:52:57;;;;;;;6.38;1.50;;;;;;;5.00;80.43;98604.03;4849562;29;20072;-76
2022/01/05 04:55:23;;;;;;;8.32;1.48;;;;;;;5.16;80.62;98600.84;4847922;29;20033;-79
2022/01/05 04:57:48;;;;;;;6.57;1.80;;;;;;;5.13;80.82;98608.25;4848779;29;20042;-79
2022/01/05 05:00:14;;;;;;;6.63;1.77;;;;;;;4.96;80.13;98605.28;4848857;29;20639;-78
2022/01/05 05:02:39;;;;;;;7.38;1.52;;;;;;;4.91;80.16;98615.47;4852232;29;20079;-77
2022/01/05 05:05:04;;;;;;;7.50;1.80;;;;;;;4.93;80.00;98618.81;4862332;29;20109;-77
2022/01/05 05:07:30;;;;;;;6.18;1.60;;;;;;;4.99;81.00;98617.41;4848012;29;20038;-76
2022/01/05 05:09:55;;;;;;;7.38;1.73;;;;;;;4.97;80.46;98622.03;4849125;29;20157;-78
2022/01/05 05:12:21;;;;;;;5.97;1.98;;;;;;;4.90;80.64;98620.88;4847470;29;20046;-76
2022/01/05 05:14:46;;;;;;;8.05;1.90;;;;;;;4.85;80.00;98631.06;4846951;29;20089;-78
2022/01/05 05:17:11;;;;;;;6.97;1.77;;;;;;;4.96;80.82;98634.44;4846627;29;20086;-77
2022/01/05 05:19:37;;;;;;;6.00;1.75;;;;;;;4.88;80.27;98630.78;4832398;29;20041;-78
2022/01/05 05:22:02;;;;;;;5.72;1.67;;;;;;;4.83;80.35;98638.28;4848263;29;20068;-76
2022/01/05 05:24:27;;;;;;;6.47;1.60;;;;;;;4.91;80.33;98636.66;4850983;29;20073;-79
2022/01/05 05:26:53;;;;;;;7.15;1.58;;;;;;;4.91;80.21;98638.47;4851845;29;20127;-76
2022/01/05 05:29:18;;;;;;;5.38;2.00;;;;;;;4.87;79.87;98639.69;4836558;29;20042;-77
2022/01/05 05:31:43;;;;;;;7.72;1.45;;;;;;;4.90;79.52;98640.25;4866902;29;20870;-77
2022/01/05 05:34:09;;;;;;;9.52;2.03;;;;;;;4.99;80.30;98646.56;4866408;29;20050;-76
2022/01/05 05:36:34;;;;;;;5.97;1.70;;;;;;;5.06;80.93;98639.75;4866890;29;20571;-78
2022/01/05 05:38:59;;;;;;;7.00;1.70;;;;;;;4.99;80.69;98646.56;4849852;29;20111;-76
2022/01/05 05:41:25;;;;;;;5.78;1.60;;;;;;;5.01;81.02;98637.50;4864590;29;20120;-75
2022/01/05 05:43:50;;;;;;;4.95;1.60;;;;;;;5.13;81.20;98630.28;4849464;29;20053;-76
2022/01/05 05:46:16;;;;;;;9.30;2.00;;;;;;;5.04;81.16;98637.22;4865049;29;20041;-78
2022/01/05 05:48:42;;;;;;;6.45;1.60;;;;;;;4.92;80.36;98648.06;4850736;29;20098;-76
2022/01/05 05:51:08;;;;;;;9.45;1.90;;;;;;;4.91;80.73;98643.75;4865988;29;20966;-76
2022/01/05 05:53:33;;;;;;;6.88;2.13;;;;;;;4.82;80.42;98650.69;4850012;29;20071;-78
2022/01/05 05:55:58;;;;;;;7.20;1.98;;;;;;;4.86;81.14;98633.56;4850169;29;20048;-78
2022/01/05 05:58:24;;;;;;;11.43;2.22;;;;;;;4.85;80.71;98657.53;4850011;29;20037;-77
2022/01/05 06:00:49;;;;;;;5.95;2.00;;;;;;;4.84;80.63;98653.22;4850290;29;20507;-76
2022/01/05 06:03:15;;;;;;;10.23;1.92;;;;;;;4.78;80.02;98661.69;4865485;29;20054;-77
2022/01/05 06:05:40;;;;;;;3.88;1.55;;;;;;;4.84;80.44;98663.81;4850134;29;20473;-76
2022/01/05 06:08:05;;;;;;;8.63;2.03;;;;;;;4.84;80.45;98656.69;4849928;29;20062;-78
2022/01/05 06:10:31;;;;;;;7.35;2.00;;;;;;;5.05;81.54;98654.81;4834554;29;20042;-76
2022/01/05 06:12:56;;;;;;;7.15;1.95;;;;;;;4.93;81.09;98647.94;4866252;29;20062;-78
2022/01/05 06:15:22;;;;;;;5.68;1.85;;;;;;;4.99;80.88;98650.03;4848494;29;21080;-76
2022/01/05 06:17:47;;;;;;;7.35;2.25;;;;;;;4.89;80.69;98641.25;4850086;29;20034;-77
2022/01/05 06:20:12;;;;;;;4.05;1.70;;;;;;;4.89;81.03;98666.88;4866976;29;20845;-76
2022/01/05 06:22:39;;;;;;;8.38;1.90;;;;;;;4.78;80.75;98659.88;4849199;29;20034;-77
2022/01/05 06:25:05;;;;;;;10.27;2.33;;;;;;;4.72;80.81;98670.97;4865905;29;20026;-77
2022/01/05 06:27:31;;;;;;;8.85;2.10;;;;;;;4.71;80.69;98666.66;4865623;29;20042;-76
2022/01/05 06:29:56;;;;;;;7.78;1.98;;;;;;;4.84;81.50;98672.59;4851002;29;20044;-78
2022/01/05 06:32:22;;;;;;;8.43;2.53;;;;;;;4.74;81.06;98684.94;4850359;29;20041;-78
2022/01/05 06:34:47;;;;;;;8.43;2.65;;;;;;;4.69;80.87;98680.03;4848051;29;20037;-77
2022/01/05 06:37:15;;;;;;;9.20;2.15;;;;;;;4.76;81.31;98677.72;4849527;29;20026;-78
2022/01/05 06:39:43;;;;;;;7.70;2.25;;;;;;;4.65;80.70;98678.63;4849867;29;20046;-77
2022/01/05 06:42:08;;;;;;;9.48;2.95;;;;;;;4.65;81.30;98680.44;4834366;29;20105;-76
2022/01/05 06:44:33;;;;;;;9.63;2.47;;;;;;;4.58;80.64;98692.50;4851090;29;20050;-77
2022/01/05 06:46:59;;;;;;;8.40;2.10;;;;;;;4.64;81.45;98698.13;4850313;29;20042;-78
2022/01/05 06:49:24;;;;;;;9.35;2.63;;;;;;;4.85;82.32;98689.31;4848975;29;20034;-77
2022/01/05 06:51:50;;;;;;;9.35;2.38;;;;;;;4.83;82.17;98702.69;4864350;29;20077;-77
2022/01/05 06:54:16;;;;;;;8.77;2.65;;;;;;;4.70;81.74;98702.03;4865617;29;20050;-77
2022/01/05 06:56:41;;;;;;;9.20;2.50;;;;;;;4.61;81.27;98705.47;4848976;29;20228;-77
2022/01/05 06:59:06;;;;;;;8.25;2.67;;;;;;;4.60;81.75;98711.75;4848000;29;20058;-77
2022/01/05 07:01:32;;;;;;;8.82;2.65;;;;;;;4.48;81.57;98712.81;4849812;29;20042;-81
2022/01/05 07:03:59;;;;;;;8.73;2.53;;;;;;;4.51;81.61;98720.47;4864925;29;20053;-76
2022/01/05 07:06:25;;;;;;;8.98;2.45;;;;;;;4.69;82.36;98725.03;4864324;29;20069;-76
2022/01/05 07:08:50;;;;;;;8.05;2.30;;;;;;;4.90;83.08;98729.47;4832854;29;20089;-77
2022/01/05 07:11:15;;;;;;;10.30;2.95;;;;;;;4.89;82.75;98718.03;4847286;29;20121;-76
2022/01/05 07:13:40;;;;;;;11.48;3.22;;;;;;;4.74;82.26;98730.81;4849270;29;20038;-77
2022/01/05 07:16:06;;;;;;;9.25;2.85;;;;;;;4.71;81.99;98728.38;4848011;29;20083;-78
2022/01/05 07:18:31;;;;;;;7.60;2.13;;;;;;;4.63;81.52;98725.56;4848932;29;20126;-77
2022/01/05 07:20:56;;;;;;;12.85;2.60;;;;;;;4.78;82.03;98730.53;4848788;29;20042;-79
2022/01/05 07:23:22;;;;;;;7.82;2.55;;;;;;;4.84;82.76;98736.16;4863186;29;20033;-77
2022/01/05 07:25:47;;;;;;;7.72;2.63;;;;;;;4.69;82.00;98743.56;4864389;29;20106;-77
2022/01/05 07:28:13;;;;;;;7.85;2.80;;;;;;;4.79;82.57;98738.34;4862722;29;20038;-77
2022/01/05 07:30:38;;;;;;;10.75;2.63;;;;;;;4.71;82.09;98751.38;4862837;29;20054;-76
2022/01/05 07:33:03;;;;;;;8.02;2.75;;;;;;;4.58;82.23;98751.59;4848329;29;20045;-76
2022/01/05 07:35:28;;;;;;;10.80;2.95;;;;;;;4.56;82.09;98745.59;4848359;29;20576;-76
2022/01/05 07:37:54;;;;;;;14.80;2.75;;;;;;;4.82;83.42;98753.13;4846764;29;20049;-77
2022/01/05 07:40:19;;;;;;;13.05;2.70;;;;;;;4.70;82.49;98742.59;4847401;29;20120;-76
2022/01/05 07:42:44;;;;;;;9.98;2.70;;;;;;;4.68;82.35;98755.13;4847093;29;20049;-76
2022/01/05 07:45:10;;;;;;;7.55;2.45;;;;;;;4.75;82.75;98755.47;4833597;29;20030;-77
2022/01/05 07:47:36;;;;;;;10.35;3.03;;;;;;;4.69;82.72;98759.47;4863291;29;20033;-77
2022/01/05 07:50:03;;;;;;;9.63;2.55;;;;;;;4.65;81.73;98762.50;4863491;29;20076;-78
2022/01/05 07:52:28;;;;;;;7.95;2.28;;;;;;;4.65;82.10;98767.78;4862777;29;21005;-77
2022/01/05 07:54:54;;;;;;;7.80;2.50;;;;;;;4.64;82.20;98769.59;4848807;29;20034;-79
2022/01/05 07:57:19;;;;;;;7.90;2.55;;;;;;;4.77;82.63;98777.38;4863107;29;20026;-76
2022/01/05 07:59:45;;;;;;;14.30;2.83;;;;;;;4.64;81.77;98771.41;4864237;29;20046;-78
2022/01/05 08:02:11;;;;;;;5.88;2.40;;;;;;;4.66;82.40;98778.25;4833648;29;20070;-77
2022/01/05 08:04:36;;;;;;;6.03;2.47;;;;;;;4.91;83.41;98774.38;4834029;29;20074;-79
2022/01/05 08:07:02;;;;;;;6.55;2.30;;;;;;;4.96;83.34;98782.75;4848552;29;20094;-76
2022/01/05 08:09:29;;;;;;;6.85;3.00;;;;;;;4.76;82.25;98790.75;4862672;29;20540;-78
2022/01/05 08:11:57;;;;;;;7.97;2.55;;;;;;;4.85;82.94;98796.09;4860551;29;20052;-77
2022/01/05 08:14:23;;;;;;;9.82;2.63;;;;;;;4.78;82.56;98799.38;4848577;29;20065;-78
2022/01/05 08:16:48;;;;;;;6.28;2.40;;;;;;;4.74;82.41;98799.66;4862028;29;20598;-77
2022/01/05 08:19:13;;;;;;;6.88;2.33;;;;;;;4.92;83.55;98801.69;4861987;29;20034;-76
2022/01/05 08:21:39;;;;;;;8.30;2.40;;;;;;;4.72;82.26;98804.22;4860935;29;20470;-76
2022/01/05 08:24:04;;;;;;;6.47;2.08;;;;;;;4.86;83.08;98802.22;4847051;29;20034;-78
2022/01/05 08:26:30;;;;;;;7.00;2.63;;;;;;;4.83;82.59;98811.28;4832679;29;20038;-75
2022/01/05 08:28:55;;;;;;;8.93;2.30;;;;;;;4.83;83.07;98803.31;4846425;29;20030;-76
2022/01/05 08:31:20;;;;;;;8.13;2.13;;;;;;;4.77;82.22;98811.78;4845682;29;20507;-75
2022/01/05 08:33:46;;;;;;;7.50;2.20;;;;;;;4.71;82.54;98804.34;4847326;29;20046;-75
2022/01/05 08:36:11;;;;;;;10.15;2.50;;;;;;;4.73;82.31;98816.50;4847606;29;20037;-76
2022/01/05 08:38:37;;;;;;;7.78;2.17;;;;;;;4.79;82.31;98803.72;4847432;29;20050;-76
2022/01/05 08:41:03;;;;;;;7.13;2.05;;;;;;;4.87;82.90;98814.50;4831124;29;20053;-77
2022/01/05 08:43:28;;;;;;;7.57;2.00;;;;;;;4.90;82.48;98828.31;4859814;29;20045;-77
2022/01/05 08:45:53;;;;;;;7.47;2.20;;;;;;;4.85;82.69;98827.88;4859108;29;20368;-76
2022/01/05 08:48:19;;;;;;;8.18;2.17;;;;;;;4.90;82.67;98817.72;4846421;29;20048;-76
2022/01/05 08:50:44;;;;;;;7.38;1.92;;;;;;;4.77;82.30;98824.19;4844734;29;20060;-77
2022/01/05 08:53:10;;;;;;;8.13;2.22;;;;;;;4.91;83.41;98829.16;4847055;29;20387;-78
2022/01/05 08:55:39;;;;;;;10.60;2.72;;;;;;;4.78;82.66;98842.59;4846530;29;20102;-77
2022/01/05 08:58:06;;;;;;;7.15;2.22;;;;;;;4.79;82.75;98846.09;4846421;29;20142;-75
2022/01/05 09:00:32;;;;;;;6.72;2.22;;;;;;;4.75;82.42;98845.50;4864851;29;20075;-75
2022/01/05 09:02:58;;;;;;;6.88;2.25;;;;;;;4.80;82.43;98845.13;4849633;29;20038;-76
2022/01/05 09:05:23;;;;;;;6.97;2.17;;;;;;;4.82;82.90;98854.59;4851738;29;20592;-76
2022/01/05 09:07:49;;;;;;;9.77;2.40;;;;;;;4.84;83.33;98857.97;4850718;29;20417;-76
2022/01/05 09:10:14;;;;;;;5.30;2.00;;;;;;;4.89;83.41;98863.72;4854550;29;20030;-76
2022/01/05 09:12:39;;;;;;;7.75;2.75;;;;;;;4.88;82.78;98863.84;4864213;29;20048;-76
2022/01/05 09:15:05;;;;;;;7.53;2.08;;;;;;;4.92;83.46;98854.66;4852083;29;20057;-75
2022/01/05 09:17:31;;;;;;;7.32;2.17;;;;;;;4.91;83.13;98861.78;4852003;29;20093;-76
2022/01/05 09:19:56;;;;;;;9.15;2.22;;;;;;;4.78;82.48;98861.13;4851088;29;20106;-76
2022/01/05 09:22:22;;;;;;;12.90;2.55;;;;;;;4.84;83.21;98846.53;4852400;29;20056;-77
2022/01/05 09:24:48;;;;;;;7.70;2.20;;;;;;;4.88;83.41;98854.09;4849878;29;20041;-76
2022/01/05 09:27:13;;;;;;;7.55;2.38;;;;;;;4.72;83.00;98856.31;4835266;29;20038;-75
2022/01/05 09:29:40;;;;;;;6.57;2.25;;;;;;;4.85;83.68;98840.28;4834144;29;20158;-77
2022/01/05 09:32:08;;;;;;;9.68;2.20;;;;;;;4.84;83.36;98841.25;4847262;29;20034;-76
2022/01/05 09:34:34;;;;;;;11.70;2.38;;;;;;;4.85;83.08;98853.50;4847463;29;20038;-76
2022/01/05 09:37:09;;;;;;;8.75;1.98;;;;;;;4.95;83.75;98852.59;4831590;29;20095;-77
2022/01/05 09:42:19;;;;;;;7.95;1.98;;;;;;;4.91;83.18;98868.88;4835539;29;21474;-77
2022/01/05 09:44:46;;;;;;;6.93;1.98;;;;;;;4.88;82.84;98877.94;4862256;29;20037;-77
2022/01/05 09:47:11;;;;;;;5.35;1.90;;;;;;;4.85;82.74;98883.47;4833457;29;20045;-77
2022/01/05 09:49:45;;;;;;;8.43;2.15;;;;;;;4.87;83.08;98884.19;4850221;29;20116;-78
2022/01/05 09:52:11;;;;;;;5.88;1.85;;;;;;;4.93;82.86;98891.63;4850024;29;20122;-77
2022/01/05 09:54:42;;;;;;;5.38;1.73;;;;;;;4.85;82.70;98885.28;4833168;29;20042;-76
2022/01/05 09:57:08;;;;;;;9.35;2.15;;;;;;;4.89;83.21;98892.84;4850625;29;20030;-75
2022/01/05 09:59:35;;;;;;;7.10;2.08;;;;;;;4.94;83.63;98895.13;4849639;29;20056;-76
2022/01/05 10:02:02;;;;;;;8.48;1.77;;;;;;;5.06;83.89;98897.56;4862516;29;20126;-79
2022/01/05 10:04:27;;;;;;;7.22;2.28;;;;;;;5.00;83.27;98894.59;4849675;29;20030;-75
2022/01/05 10:06:53;;;;;;;7.28;2.20;;;;;;;5.05;83.84;98895.03;4850791;29;20049;-75
2022/01/05 10:09:22;;;;;;;9.25;2.15;;;;;;;5.10;83.66;98906.09;4863732;29;20061;-76
2022/01/05 10:11:48;;;;;;;10.13;2.60;;;;;;;4.96;83.48;98911.72;4862049;29;20053;-76
2022/01/05 10:14:13;;;;;;;5.80;2.08;;;;;;;5.06;84.09;98902.03;4833676;29;20030;-76
2022/01/05 10:17:19;;;;;;;9.90;2.38;;;;;;;4.96;84.01;98911.72;4849579;29;20057;-79
2022/01/05 10:19:44;;;;;;;9.15;2.47;;;;;;;4.98;84.27;98913.28;4838006;29;20057;-77
2022/01/05 10:22:34;;;;;;;7.90;2.38;;;;;;;5.10;84.92;98921.16;4849778;29;20037;-76
2022/01/05 10:25:02;;;;;;;9.68;2.75;;;;;;;4.97;84.60;98918.69;4849213;29;20045;-75
2022/01/05 10:27:28;;;;;;;10.27;2.90;;;;;;;4.93;83.96;98919.91;4834200;29;20042;-77
2022/01/05 10:30:25;;;;;;;5.90;2.30;;;;;;;4.92;84.27;98913.78;4847471;29;20035;-76
2022/01/05 10:32:53;;;;;;;8.07;2.55;;;;;;;4.96;84.59;98925.81;4843353;29;20049;-78
2022/01/05 10:35:26;;;;;;;9.75;2.47;;;;;;;5.00;85.01;98926.38;4861479;29;20021;-76
2022/01/05 10:38:18;;;;;;;9.75;2.75;;;;;;;5.20;85.55;98936.16;4847455;29;21025;-76
2022/01/05 10:40:44;;;;;;;7.88;2.22;;;;;;;5.09;84.64;98928.25;4829003;29;20067;-78
2022/01/05 10:43:11;;;;;;;6.78;2.50;;;;;;;5.03;84.70;98931.44;4849431;29;20046;-77
2022/01/05 10:45:45;;;;;;;6.95;2.25;;;;;;;5.15;85.51;98941.00;4833838;29;20841;-77
2022/01/05 10:48:13;;;;;;;6.78;2.35;;;;;;;5.12;85.38;98937.75;4862116;29;20035;-77
2022/01/05 10:50:39;;;;;;;8.90;2.67;;;;;;;5.25;85.97;98935.78;4834903;29;21126;-76
2022/01/05 10:53:05;;;;;;;7.13;2.40;;;;;;;5.14;85.16;98930.53;4849554;29;20033;-78
2022/01/05 10:55:31;;;;;;;6.50;2.50;;;;;;;5.13;85.25;98945.56;4862349;29;20114;-77
2022/01/05 10:58:04;;;;;;;8.50;2.63;;;;;;;5.18;85.35;98938.06;4849754;29;20050;-77
2022/01/05 11:00:32;;;;;;;7.30;2.35;;;;;;;5.22;85.60;98941.34;4848869;29;20037;-76
2022/01/05 11:02:58;;;;;;;5.53;2.20;;;;;;;5.13;85.62;98955.34;4849545;29;20049;-77
2022/01/05 11:05:23;;;;;;;8.35;2.40;;;;;;;5.22;85.57;98952.78;4833524;29;20026;-76
2022/01/05 11:07:48;;;;;;;10.05;2.53;;;;;;;5.12;85.40;98958.97;4847968;29;20042;-77
2022/01/05 11:10:18;;;;;;;7.00;2.55;;;;;;;5.15;85.79;98964.00;4847900;29;20041;-76
2022/01/05 11:12:45;;;;;;;6.65;2.47;;;;;;;5.08;85.36;98984.88;4862969;29;20034;-77
2022/01/05 11:15:30;;;;;;;7.10;2.13;;;;;;;5.27;85.87;98963.84;4848907;29;20049;-76
2022/01/05 11:18:09;;;;;;;8.75;2.55;;;;;;;5.07;85.41;98969.94;4849649;29;20038;-77
2022/01/05 11:20:43;;;;;;;10.50;2.90;;;;;;;5.01;85.15;98975.75;4860912;29;20052;-76
2022/01/05 11:23:08;;;;;;;11.30;3.30;;;;;;;5.10;85.13;98971.50;4847865;29;20026;-76
2022/01/05 11:25:38;;;;;;;7.30;2.13;;;;;;;5.06;85.27;98966.44;4833879;29;20044;-76
2022/01/05 11:28:05;;;;;;;9.73;2.38;;;;;;;5.12;85.76;98966.91;4848912;29;20042;-77
2022/01/05 11:30:31;;;;;;;8.00;3.03;;;;;;;5.15;85.33;98978.09;4831288;29;20391;-77
2022/01/05 11:32:56;;;;;;;12.45;3.03;;;;;;;5.11;85.54;98979.31;4847621;29;20048;-78
2022/01/05 11:35:21;;;;;;;6.95;2.42;;;;;;;5.13;85.66;98968.59;4847864;29;20049;-76
2022/01/05 11:37:47;;;;;;;9.20;3.03;;;;;;;5.11;85.47;98968.72;4848156;29;20058;-76
2022/01/05 11:40:13;;;;;;;9.57;2.78;;;;;;;5.17;85.57;98976.16;4862452;29;20046;-76
2022/01/05 11:42:40;;;;;;;9.65;2.65;;;;;;;5.23;85.88;98961.56;4848833;29;20836;-79